Time;durP1;ratioP1;P1;durP2;ratioP2;P2;SDS_P1;SDS_P2;PMS_P1;PMS_P2;Temp;Humidity;BMP_temperature;BMP_pressure;BME280_temperature;BME280_humidity;BME280_pressure;Samples;Min_cycle;Max_cycle;Signal;HPM_P1;HPM_P2
2023/08/24 00:02:08;;;;;;;10.18;6.50;;;;;;;;;;5032791;28;20049;-66
2023/08/24 00:04:34;;;;;;;8.63;6.85;;;;;;;;;;5036500;28;20045;-67
2023/08/24 00:07:00;;;;;;;9.77;7.18;;;;;;;;;;5050860;28;20123;-66
2023/08/24 00:09:27;;;;;;;9.73;6.47;;;;;;;;;;5051321;28;20052;-66
2023/08/24 00:11:53;;;;;;;10.30;6.75;;;;;;;;;;5047956;28;20408;-66
2023/08/24 00:14:19;;;;;;;9.95;6.45;;;;;;;;;;5044882;28;20083;-67
2023/08/24 00:16:45;;;;;;;14.57;8.93;;;;;;;;;;5044858;28;20055;-66
2023/08/24 00:19:12;;;;;;;10.00;7.80;;;;;;;;;;5044800;28;20040;-66
2023/08/24 00:21:38;;;;;;;10.93;7.38;;;;;;;;;;5045366;28;20037;-67
2023/08/24 00:24:04;;;;;;;10.93;7.15;;;;;;;;;;5025989;28;20131;-66
2023/08/24 00:26:30;;;;;;;12.07;8.68;;;;;;;;;;5041168;28;20075;-66
2023/08/24 00:28:56;;;;;;;11.10;7.50;;;;;;;;;;5047878;28;20111;-66
2023/08/24 00:31:23;;;;;;;10.65;7.15;;;;;;;;;;5060336;28;20160;-66
2023/08/24 00:33:50;;;;;;;11.45;7.97;;;;;;;;;;5043829;28;20047;-66
2023/08/24 00:36:17;;;;;;;10.60;7.15;;;;;;;;;;5043863;28;20045;-65
2023/08/24 00:38:44;;;;;;;9.63;7.05;;;;;;;;;;5047632;28;20057;-66
2023/08/24 00:41:10;;;;;;;12.60;8.98;;;;;;;;;;5031442;28;20068;-67
2023/08/24 00:43:36;;;;;;;13.23;8.30;;;;;;;;;;5030611;28;20124;-66
2023/08/24 00:46:02;;;;;;;10.82;7.60;;;;;;;;;;5044959;28;20049;-65
2023/08/24 00:48:29;;;;;;;15.32;8.50;;;;;;;;;;5047279;28;20044;-66
2023/08/24 00:51:00;;;;;;;13.35;8.20;;;;;;;;;;5043588;28;20095;-66
2023/08/24 00:53:27;;;;;;;16.70;9.05;;;;;;;;;;5064186;28;20477;-66
2023/08/24 00:55:53;;;;;;;13.20;8.82;;;;;;;;;;5043933;28;20088;-66
2023/08/24 00:58:20;;;;;;;14.35;8.43;;;;;;;;;;5035644;28;20443;-66
2023/08/24 01:00:46;;;;;;;9.85;7.57;;;;;;;;;;5035646;28;20041;-65
2023/08/24 01:03:12;;;;;;;14.23;8.30;;;;;;;;;;5051140;28;20080;-66
2023/08/24 01:05:38;;;;;;;10.23;7.63;;;;;;;;;;5046913;28;20528;-66
2023/08/24 01:08:04;;;;;;;12.10;7.90;;;;;;;;;;5050907;28;20048;-66
2023/08/24 01:10:38;;;;;;;15.57;9.27;;;;;;;;;;5046528;28;20186;-66
2023/08/24 01:13:11;;;;;;;13.30;8.55;;;;;;;;;;5031464;28;20060;-66
2023/08/24 01:15:56;;;;;;;12.50;8.30;;;;;;;;;;5055930;28;20045;-66
2023/08/24 01:18:26;;;;;;;12.48;8.75;;;;;;;;;;5031940;28;20099;-66
2023/08/24 01:20:52;;;;;;;14.27;8.20;;;;;;;;;;5081100;28;20060;-66
2023/08/24 01:23:42;;;;;;;15.30;8.27;;;;;;;;;;5049851;28;20187;-66
2023/08/24 01:26:17;;;;;;;13.80;7.40;;;;;;;;;;5082770;28;20109;-66
2023/08/24 01:28:44;;;;;;;13.40;8.07;;;;;;;;;;5046365;28;20045;-66
2023/08/24 01:31:11;;;;;;;14.05;7.45;;;;;;;;;;5049780;28;20041;-66
2023/08/24 01:33:37;;;;;;;11.52;6.88;;;;;;;;;;5050806;28;20139;-66
2023/08/24 01:36:03;;;;;;;11.57;8.10;;;;;;;;;;5067473;28;20049;-65
2023/08/24 01:38:30;;;;;;;14.40;7.80;;;;;;;;;;5049856;28;20037;-66
2023/08/24 01:40:59;;;;;;;11.40;7.55;;;;;;;;;;5048784;28;20052;-66
2023/08/24 01:43:33;;;;;;;13.88;7.60;;;;;;;;;;5051601;28;20052;-65
2023/08/24 01:46:01;;;;;;;12.13;6.68;;;;;;;;;;5049045;28;20076;-66
2023/08/24 01:48:29;;;;;;;12.02;7.28;;;;;;;;;;5050135;28;20056;-66
2023/08/24 01:50:56;;;;;;;12.27;7.28;;;;;;;;;;5044997;28;20856;-67
2023/08/24 01:53:22;;;;;;;10.65;6.72;;;;;;;;;;5054001;28;21630;-66
2023/08/24 01:55:48;;;;;;;9.48;7.40;;;;;;;;;;5053706;28;20401;-67
2023/08/24 01:58:14;;;;;;;14.35;7.97;;;;;;;;;;5053816;28;20395;-67
2023/08/24 02:00:40;;;;;;;8.55;6.35;;;;;;;;;;5052861;28;20041;-67
2023/08/24 02:03:06;;;;;;;11.85;6.43;;;;;;;;;;5053397;28;20057;-67
2023/08/24 02:05:32;;;;;;;11.63;6.80;;;;;;;;;;5048441;28;20049;-67
2023/08/24 02:07:59;;;;;;;12.07;6.47;;;;;;;;;;5054176;28;20060;-67
2023/08/24 02:10:26;;;;;;;12.68;6.70;;;;;;;;;;5071383;28;20049;-67
2023/08/24 02:12:52;;;;;;;10.20;6.47;;;;;;;;;;5052352;28;20052;-66
2023/08/24 02:15:18;;;;;;;10.43;6.80;;;;;;;;;;5024667;28;20053;-67
2023/08/24 02:17:44;;;;;;;12.93;6.43;;;;;;;;;;5048563;28;20076;-66
2023/08/24 02:20:14;;;;;;;11.55;6.85;;;;;;;;;;5053289;28;20083;-67
2023/08/24 02:22:40;;;;;;;11.13;6.72;;;;;;;;;;5054285;28;20082;-67
2023/08/24 02:25:06;;;;;;;13.63;6.65;;;;;;;;;;5051288;28;20051;-67
2023/08/24 02:27:32;;;;;;;12.60;6.13;;;;;;;;;;5051894;28;20051;-67
2023/08/24 02:29:58;;;;;;;10.60;6.47;;;;;;;;;;5052316;28;20049;-67
2023/08/24 02:32:24;;;;;;;8.70;6.15;;;;;;;;;;5053047;28;20077;-66
2023/08/24 02:34:51;;;;;;;9.40;6.63;;;;;;;;;;5051046;28;20045;-66
2023/08/24 02:37:17;;;;;;;10.95;6.30;;;;;;;;;;5084894;28;20056;-66
2023/08/24 02:39:43;;;;;;;13.35;6.80;;;;;;;;;;5052533;28;20065;-66
2023/08/24 02:42:09;;;;;;;11.60;6.80;;;;;;;;;;5048299;28;20060;-66
2023/08/24 02:44:35;;;;;;;11.50;6.07;;;;;;;;;;5047601;28;20073;-66
2023/08/24 02:47:01;;;;;;;10.77;6.85;;;;;;;;;;5033711;28;20049;-66
2023/08/24 02:49:28;;;;;;;10.68;6.40;;;;;;;;;;5041796;28;20033;-66
2023/08/24 02:51:56;;;;;;;14.82;6.40;;;;;;;;;;5050295;28;20080;-66
2023/08/24 02:54:22;;;;;;;13.27;6.07;;;;;;;;;;5042998;28;20076;-66
2023/08/24 02:56:48;;;;;;;10.52;6.20;;;;;;;;;;5032998;28;20041;-66
2023/08/24 02:59:14;;;;;;;11.18;6.03;;;;;;;;;;5034340;28;20124;-66
2023/08/24 03:01:41;;;;;;;10.60;6.05;;;;;;;;;;5035480;28;20053;-66
2023/08/24 03:04:07;;;;;;;12.68;7.10;;;;;;;;;;5051118;28;20045;-66
2023/08/24 03:06:33;;;;;;;10.98;7.30;;;;;;;;;;5052120;28;20408;-66
2023/08/24 03:09:00;;;;;;;10.27;6.80;;;;;;;;;;5049288;28;20069;-66
2023/08/24 03:11:26;;;;;;;9.38;5.78;;;;;;;;;;5040282;28;20489;-66
2023/08/24 03:13:53;;;;;;;9.73;6.00;;;;;;;;;;5036178;28;20053;-66
2023/08/24 03:16:20;;;;;;;10.18;6.35;;;;;;;;;;5051132;28;20041;-66
2023/08/24 03:18:46;;;;;;;11.63;5.70;;;;;;;;;;5052894;28;20142;-66
2023/08/24 03:21:12;;;;;;;13.60;6.70;;;;;;;;;;5052240;28;20076;-66
2023/08/24 03:23:38;;;;;;;10.05;6.28;;;;;;;;;;5050361;28;20045;-66
2023/08/24 03:26:04;;;;;;;12.20;6.43;;;;;;;;;;5051719;28;20132;-66
2023/08/24 03:28:30;;;;;;;11.35;6.07;;;;;;;;;;5050414;28;20041;-66
2023/08/24 03:30:56;;;;;;;9.30;6.07;;;;;;;;;;5052350;28;20045;-66
2023/08/24 03:33:22;;;;;;;8.70;5.75;;;;;;;;;;5043421;28;20519;-66
2023/08/24 03:35:49;;;;;;;9.82;5.95;;;;;;;;;;5051554;28;20044;-66
2023/08/24 03:38:15;;;;;;;9.93;5.40;;;;;;;;;;5050694;28;20041;-66
2023/08/24 03:40:41;;;;;;;10.20;5.53;;;;;;;;;;5049811;28;20505;-66
2023/08/24 03:43:07;;;;;;;12.52;5.75;;;;;;;;;;5066100;28;20049;-66
2023/08/24 03:45:34;;;;;;;10.23;6.32;;;;;;;;;;5051923;28;20053;-66
2023/08/24 03:48:00;;;;;;;13.10;6.95;;;;;;;;;;5052042;28;20052;-67
2023/08/24 03:50:26;;;;;;;11.32;7.07;;;;;;;;;;5051850;28;20385;-67
2023/08/24 03:52:54;;;;;;;10.05;6.30;;;;;;;;;;5048301;28;20040;-67
2023/08/24 03:55:20;;;;;;;7.32;5.38;;;;;;;;;;5051276;28;20404;-67
2023/08/24 03:57:46;;;;;;;11.57;6.40;;;;;;;;;;5051615;28;20128;-67
2023/08/24 04:00:14;;;;;;;9.38;6.55;;;;;;;;;;5049011;28;20408;-69
2023/08/24 04:02:41;;;;;;;8.43;6.20;;;;;;;;;;5050177;28;20106;-66
2023/08/24 04:05:07;;;;;;;11.70;6.35;;;;;;;;;;5048302;28;20037;-66
2023/08/24 04:07:36;;;;;;;13.80;6.22;;;;;;;;;;5032409;28;20516;-66
2023/08/24 04:10:04;;;;;;;12.93;6.55;;;;;;;;;;5034626;28;20048;-64
2023/08/24 04:12:30;;;;;;;10.45;5.72;;;;;;;;;;5045016;28;20498;-66
2023/08/24 04:14:57;;;;;;;9.43;6.60;;;;;;;;;;5050153;28;20098;-66
2023/08/24 04:20:54;;;;;;;9.77;6.65;;;;;;;;;;5045384;28;20049;-66
2023/08/24 04:23:24;;;;;;;14.27;6.57;;;;;;;;;;5049993;28;20041;-66
2023/08/24 04:25:50;;;;;;;10.70;6.07;;;;;;;;;;5050315;28;20378;-66
2023/08/24 04:28:16;;;;;;;11.80;6.07;;;;;;;;;;5049663;28;20053;-66
2023/08/24 04:30:49;;;;;;;13.05;6.93;;;;;;;;;;5051268;28;20037;-66
2023/08/24 04:33:15;;;;;;;11.32;6.53;;;;;;;;;;5050580;28;20040;-66
2023/08/24 04:35:41;;;;;;;10.73;6.57;;;;;;;;;;5046316;28;20114;-66
2023/08/24 04:38:09;;;;;;;9.55;5.88;;;;;;;;;;5054437;28;20045;-66
2023/08/24 04:40:48;;;;;;;10.88;6.93;;;;;;;;;;5051598;28;20106;-66
2023/08/24 04:43:17;;;;;;;13.27;6.30;;;;;;;;;;5038101;28;20485;-66
2023/08/24 04:45:43;;;;;;;11.18;6.30;;;;;;;;;;5035528;28;20103;-66
2023/08/24 04:48:09;;;;;;;11.75;6.85;;;;;;;;;;5037499;28;20056;-66
2023/08/24 04:50:35;;;;;;;11.57;6.93;;;;;;;;;;5044938;28;20622;-65
2023/08/24 04:53:01;;;;;;;10.32;7.20;;;;;;;;;;5040355;28;20611;-65
2023/08/24 04:55:27;;;;;;;10.45;7.00;;;;;;;;;;5053076;28;20044;-66
2023/08/24 04:57:53;;;;;;;11.35;7.45;;;;;;;;;;5070030;28;20496;-66
2023/08/24 05:00:19;;;;;;;13.27;6.75;;;;;;;;;;5067489;28;20049;-65
2023/08/24 05:02:45;;;;;;;13.20;7.00;;;;;;;;;;5050810;28;20442;-65
2023/08/24 05:05:13;;;;;;;16.73;7.18;;;;;;;;;;5051059;28;20045;-65
2023/08/24 05:07:40;;;;;;;11.02;6.68;;;;;;;;;;5049767;28;20051;-65
2023/08/24 05:10:06;;;;;;;16.17;6.82;;;;;;;;;;5050847;28;20119;-65
2023/08/24 05:12:35;;;;;;;13.38;7.05;;;;;;;;;;5051376;28;20069;-65
2023/08/24 05:15:01;;;;;;;12.70;6.68;;;;;;;;;;5051228;28;20045;-65
2023/08/24 05:17:28;;;;;;;12.75;6.82;;;;;;;;;;5051434;28;20612;-66
2023/08/24 05:19:54;;;;;;;9.32;6.22;;;;;;;;;;5051474;28;20037;-64
2023/08/24 05:22:20;;;;;;;10.98;6.28;;;;;;;;;;5050648;28;20055;-62
2023/08/24 05:24:46;;;;;;;11.23;6.40;;;;;;;;;;5053903;28;20522;-63
2023/08/24 05:27:13;;;;;;;14.70;6.97;;;;;;;;;;5054820;28;20132;-62
2023/08/24 05:29:39;;;;;;;10.57;6.45;;;;;;;;;;5055402;28;20063;-62
2023/08/24 05:32:05;;;;;;;11.30;6.78;;;;;;;;;;5054239;28;20120;-62
2023/08/24 05:34:31;;;;;;;11.82;6.65;;;;;;;;;;5054608;28;20079;-62
2023/08/24 05:36:57;;;;;;;11.50;6.70;;;;;;;;;;5054559;28;20099;-62
2023/08/24 05:39:23;;;;;;;11.02;6.13;;;;;;;;;;5054444;28;20060;-62
2023/08/24 05:41:53;;;;;;;13.68;6.10;;;;;;;;;;5053032;28;20053;-63
2023/08/24 05:44:19;;;;;;;14.68;6.85;;;;;;;;;;5054750;28;20045;-63
2023/08/24 05:46:46;;;;;;;12.40;6.28;;;;;;;;;;5057761;28;20092;-62
2023/08/24 05:49:13;;;;;;;12.32;6.57;;;;;;;;;;5052825;28;20051;-63
2023/08/24 05:51:39;;;;;;;10.52;6.45;;;;;;;;;;5050999;28;20080;-62
2023/08/24 05:54:05;;;;;;;10.07;6.70;;;;;;;;;;5053625;28;20056;-62
2023/08/24 05:56:31;;;;;;;12.23;6.55;;;;;;;;;;5052819;28;20051;-62
2023/08/24 05:58:58;;;;;;;14.00;6.43;;;;;;;;;;5049899;28;20110;-62
2023/08/24 06:01:25;;;;;;;12.35;6.38;;;;;;;;;;5041926;28;20465;-61
2023/08/24 06:03:51;;;;;;;11.35;6.03;;;;;;;;;;5043808;28;20045;-61
2023/08/24 06:06:17;;;;;;;14.20;6.13;;;;;;;;;;5052049;28;20083;-61
2023/08/24 06:08:43;;;;;;;12.10;6.15;;;;;;;;;;5049352;28;20076;-61
2023/08/24 06:11:09;;;;;;;9.70;6.65;;;;;;;;;;5046258;28;20574;-61
2023/08/24 06:13:35;;;;;;;9.80;6.03;;;;;;;;;;5052337;28;20046;-61
2023/08/24 06:16:02;;;;;;;12.98;6.82;;;;;;;;;;5052483;28;20072;-61
2023/08/24 06:18:28;;;;;;;9.32;5.63;;;;;;;;;;5052585;28;20477;-61
2023/08/24 06:20:54;;;;;;;10.82;6.22;;;;;;;;;;5033901;28;20049;-61
2023/08/24 06:23:21;;;;;;;11.00;5.68;;;;;;;;;;5050286;28;20048;-62
2023/08/24 06:25:47;;;;;;;11.25;5.63;;;;;;;;;;5050462;28;20052;-61
2023/08/24 06:28:14;;;;;;;10.25;5.50;;;;;;;;;;5050197;28;20037;-62
2023/08/24 06:30:40;;;;;;;11.93;5.22;;;;;;;;;;5047839;28;20042;-62
2023/08/24 06:33:07;;;;;;;8.10;5.57;;;;;;;;;;5044870;28;20552;-61
2023/08/24 06:35:33;;;;;;;9.50;4.93;;;;;;;;;;5039915;28;20049;-60
2023/08/24 06:38:00;;;;;;;12.35;5.45;;;;;;;;;;5033882;28;20053;-61
2023/08/24 06:40:26;;;;;;;8.27;4.60;;;;;;;;;;5056657;28;20563;-61
2023/08/24 06:42:54;;;;;;;7.68;5.07;;;;;;;;;;5020382;28;20056;-61
2023/08/24 06:45:20;;;;;;;8.18;5.05;;;;;;;;;;5050291;28;20489;-61
2023/08/24 06:47:46;;;;;;;9.60;5.40;;;;;;;;;;5046877;28;20431;-61
2023/08/24 06:50:12;;;;;;;8.45;4.75;;;;;;;;;;5026897;28;20262;-61
2023/08/24 06:52:38;;;;;;;10.48;4.50;;;;;;;;;;5035271;28;20060;-60
2023/08/24 06:55:05;;;;;;;9.82;5.05;;;;;;;;;;5052243;28;20123;-61
2023/08/24 06:57:31;;;;;;;10.35;4.68;;;;;;;;;;5048873;28;20045;-61
2023/08/24 06:59:57;;;;;;;10.90;4.68;;;;;;;;;;5035091;28;20041;-61
2023/08/24 07:02:23;;;;;;;11.35;4.82;;;;;;;;;;5050905;28;20049;-61
2023/08/24 07:04:48;;;;;;;12.00;4.38;;;19.00;99.90;;;;;;5049391;28;20060;-63
2023/08/24 07:07:14;;;;;;;9.13;5.07;;;;;;;;;;5048736;28;20045;-61
2023/08/24 07:09:40;;;;;;;12.57;5.53;;;;;;;;;;5049118;28;20124;-61
2023/08/24 07:12:09;;;;;;;9.50;4.78;;;19.70;99.90;;;;;;5048239;28;20064;-61
2023/08/24 07:14:36;;;;;;;7.60;4.80;;;;;;;;;;5022676;28;20047;-60
2023/08/24 07:17:02;;;;;;;7.03;4.93;;;;;;;;;;5055103;28;20404;-61
2023/08/24 07:19:28;;;;;;;8.00;4.80;;;;;;;;;;5050144;28;20049;-64
2023/08/24 07:21:54;;;;;;;11.38;5.15;;;20.20;99.90;;;;;;5061811;28;20185;-62
2023/08/24 07:24:20;;;;;;;12.48;5.25;;;;;;;;;;5052293;28;20123;-62
2023/08/24 07:26:46;;;;;;;14.02;5.30;;;20.40;99.90;;;;;;5054028;28;20053;-60
2023/08/24 07:29:12;;;;;;;9.48;5.10;;;;;;;;;;5051114;28;20048;-61
2023/08/24 07:31:38;;;;;;;11.68;4.93;;;20.60;99.90;;;;;;5048440;28;20052;-59
2023/08/24 07:34:04;;;;;;;10.93;4.78;;;;;;;;;;5040844;28;20052;-60
2023/08/24 07:36:30;;;;;;;12.23;5.03;;;21.00;99.90;;;;;;5053507;28;20086;-63
2023/08/24 07:38:56;;;;;;;8.23;5.35;;;21.10;99.90;;;;;;5052672;28;20045;-64
2023/08/24 07:41:22;;;;;;;10.20;5.03;;;;;;;;;;5051626;28;20056;-59
2023/08/24 07:43:48;;;;;;;9.05;5.13;;;;;;;;;;5053272;28;20099;-57
2023/08/24 07:46:14;;;;;;;9.48;5.28;;;21.50;99.90;;;;;;5042383;28;20098;-60
2023/08/24 07:48:40;;;;;;;10.35;5.05;;;;;;;;;;5042657;28;20546;-56
2023/08/24 07:51:07;;;;;;;11.85;5.30;;;21.40;99.90;;;;;;5049472;28;20392;-57
2023/08/24 07:53:33;;;;;;;8.25;4.68;;;;;;;;;;5052381;28;20040;-58
2023/08/24 07:56:01;;;;;;;10.10;4.60;;;21.80;99.90;;;;;;5052609;28;20131;-59
2023/08/24 07:58:27;;;;;;;8.38;5.13;;;22.00;99.90;;;;;;5052039;28;20552;-57
2023/08/24 08:00:53;;;;;;;10.13;5.20;;;;;;;;;;5048293;28;20128;-57
2023/08/24 08:03:20;;;;;;;7.38;5.03;;;22.40;99.90;;;;;;5034066;28;20055;-56
2023/08/24 08:05:46;;;;;;;8.65;5.28;;;22.60;99.90;;;;;;5052247;28;20080;-56
2023/08/24 08:08:13;;;;;;;8.38;5.10;;;22.80;99.90;;;;;;5053999;28;20519;-56
2023/08/24 08:10:39;;;;;;;10.70;5.90;;;23.00;99.90;;;;;;5051780;28;20049;-56
2023/08/24 08:13:05;;;;;;;12.88;5.32;;;23.20;99.90;;;;;;5051514;28;20056;-57
2023/08/24 08:15:31;;;;;;;11.85;5.28;;;22.90;99.90;;;;;;5048438;28;20083;-56
2023/08/24 08:17:57;;;;;;;10.50;5.40;;;;;;;;;;5052103;28;20450;-56
2023/08/24 08:20:23;;;;;;;7.72;5.10;;;22.90;99.90;;;;;;5051656;28;20044;-57
2023/08/24 08:22:48;;;;;;;16.13;5.65;;;23.10;99.90;;;;;;5050969;28;20040;-57
2023/08/24 08:25:17;;;;;;;9.10;5.57;;;23.30;99.90;;;;;;5056821;28;20485;-58
2023/08/24 08:27:43;;;;;;;11.15;5.25;;;23.40;99.90;;;;;;5044252;28;20052;-59
2023/08/24 08:30:10;;;;;;;12.18;6.72;;;23.40;99.90;;;;;;5051187;28;20409;-61
2023/08/24 08:32:35;;;;;;;10.15;5.38;;;23.40;99.90;;;;;;5049177;28;20040;-61
2023/08/24 08:35:04;;;;;;;13.18;5.90;;;23.50;99.90;;;;;;5051412;28;20043;-58
2023/08/24 08:37:32;;;;;;;10.00;5.68;;;23.70;99.90;;;;;;5041203;28;20038;-58
2023/08/24 08:39:58;;;;;;;12.95;4.82;;;23.70;99.90;;;;;;5050330;28;20065;-58
2023/08/24 08:42:24;;;;;;;9.27;4.93;;;23.70;99.90;;;;;;5049521;28;20116;-58
2023/08/24 08:44:54;;;;;;;9.40;5.03;;;24.10;99.90;;;;;;5043734;28;20049;-59
2023/08/24 08:47:20;;;;;;;;;;;24.10;99.90;;;;;;5046130;28;20056;-58
2023/08/24 08:49:48;;;;;;;9.25;5.28;;;24.00;99.90;;;;;;5052025;28;19921;-58
2023/08/24 08:52:14;;;;;;;9.30;5.20;;;24.10;99.90;;;;;;5050307;28;20041;-58
2023/08/24 08:54:42;;;;;;;16.98;6.07;;;24.00;99.90;;;;;;5050233;28;20041;-58
2023/08/24 08:57:09;;;;;;;7.95;5.28;;;23.80;99.90;;;;;;5053957;28;20084;-59
2023/08/24 08:59:36;;;;;;;9.13;5.53;;;23.80;99.90;;;;;;5055249;28;20045;-59
2023/08/24 09:02:03;;;;;;;11.40;5.15;;;23.70;99.90;;;;;;5054527;28;20048;-58
2023/08/24 09:04:33;;;;;;;8.48;5.45;;;23.40;99.90;;;;;;5048356;28;20041;-58
2023/08/24 09:07:10;;;;;;;9.88;5.95;;;;;;;;;;5055515;28;20504;-58
2023/08/24 09:09:37;;;;;;;11.82;5.47;;;23.30;99.90;;;;;;5055821;28;20087;-58
2023/08/24 09:12:05;;;;;;;10.60;5.85;;;23.20;99.90;;;;;;5051105;28;20743;-57
2023/08/24 09:14:31;;;;;;;15.02;5.60;;;;;;;;;;5054182;28;20044;-57
2023/08/24 09:16:57;;;;;;;12.40;5.78;;;;;;;;;;5055607;28;20037;-57
2023/08/24 09:19:29;;;;;;;9.45;6.32;;;23.00;99.90;;;;;;5055031;28;20080;-57
2023/08/24 09:21:59;;;;;;;8.32;4.93;;;22.90;99.90;;;;;;5053164;28;20047;-58
2023/08/24 09:24:34;;;;;;;12.85;6.18;;;22.90;99.90;;;;;;5052549;28;20477;-57
2023/08/24 09:27:14;;;;;;;9.50;5.35;;;23.00;99.90;;;;;;5054548;28;20049;-57
2023/08/24 09:29:40;;;;;;;13.30;5.70;;;;;;;;;;5054721;28;20128;-58
2023/08/24 09:32:08;;;;;;;12.27;6.60;;;22.50;99.90;;;;;;5046177;28;20049;-58
2023/08/24 09:34:36;;;;;;;10.13;5.78;;;22.50;99.90;;;;;;5046980;28;20151;-52
2023/08/24 09:37:05;;;;;;;13.68;6.00;;;;;;;;;;5045783;28;20060;-57
2023/08/24 09:39:31;;;;;;;13.25;7.13;;;;;;;;;;5064894;28;20053;-62
2023/08/24 09:42:02;;;;;;;12.00;6.18;;;22.70;99.90;;;;;;5050146;28;20124;-57
2023/08/24 09:44:29;;;;;;;11.52;5.85;;;;;;;;;;5046476;28;20075;-58
2023/08/24 09:46:54;;;;;;;7.72;6.13;;;22.20;99.90;;;;;;5053621;28;20566;-58
2023/08/24 09:49:21;;;;;;;11.35;6.18;;;;;;;;;;5051490;28;20045;-58
2023/08/24 09:51:49;;;;;;;11.65;6.38;;;22.30;99.90;;;;;;5035431;28;20073;-59
2023/08/24 09:54:18;;;;;;;11.65;6.03;;;22.10;99.90;;;;;;5044446;28;20064;-55
2023/08/24 09:56:45;;;;;;;13.03;6.20;;;;;;;;;;5052118;28;20049;-57
2023/08/24 09:59:21;;;;;;;10.68;7.00;;;21.90;99.90;;;;;;5054273;28;20114;-55
2023/08/24 10:01:49;;;;;;;21.10;6.65;;;21.60;99.90;;;;;;5052251;28;20084;-64
2023/08/24 10:04:21;;;;;;;11.27;6.35;;;;;;;;;;5045158;28;20448;-64
2023/08/24 10:06:52;;;;;;;12.65;6.60;;;21.80;99.90;;;;;;5051571;28;20045;-63
2023/08/24 10:09:36;;;;;;;12.65;6.80;;;21.60;99.90;;;;;;5041137;28;20056;-67
2023/08/24 10:12:03;;;;;;;14.27;7.07;;;;;;;;;;5050914;28;20098;-62
2023/08/24 10:14:35;;;;;;;10.10;6.60;;;21.50;99.90;;;;;;5054746;28;20068;-61
2023/08/24 10:17:01;;;;;;;10.98;6.35;;;;;;;;;;5052096;28;20092;-60
2023/08/24 10:19:28;;;;;;;10.75;7.68;;;21.80;99.90;;;;;;5052408;28;20409;-61
2023/08/24 10:21:57;;;;;;;10.15;6.85;;;;;;;;;;5054969;28;20042;-64
2023/08/24 10:24:23;;;;;;;12.20;7.00;;;21.50;99.90;;;;;;5040483;28;20064;-64
2023/08/24 10:26:50;;;;;;;12.63;7.65;;;21.30;99.90;;;;;;5048325;28;20041;-64
2023/08/24 10:29:20;;;;;;;9.15;6.40;;;21.50;99.90;;;;;;5052570;28;20561;-61
2023/08/24 10:31:47;;;;;;;10.75;7.57;;;;;;;;;;5053746;28;20055;-63
2023/08/24 10:34:13;;;;;;;11.75;7.07;;;;;;;;;;5050654;28;20195;-61
2023/08/24 10:36:40;;;;;;;15.95;7.85;;;21.40;99.90;;;;;;5052424;28;20152;-65
2023/08/24 10:39:06;;;;;;;14.98;8.90;;;;;;;;;;5041918;28;20041;-63
2023/08/24 10:41:52;;;;;;;13.93;7.10;;;;;;;;;;5054309;28;20055;-63
2023/08/24 10:44:37;;;;;;;11.48;7.75;;;21.40;99.90;;;;;;5047709;28;20160;-63
2023/08/24 10:47:06;;;;;;;14.65;8.60;;;21.40;99.90;;;;;;5037791;28;20140;-65
2023/08/24 10:49:33;;;;;;;15.07;8.38;;;;;;;;;;5033848;28;20054;-63
2023/08/24 10:52:23;;;;;;;13.52;7.90;;;21.50;99.90;;;;;;5037872;28;20045;-62
2023/08/24 10:54:51;;;;;;;21.63;10.63;;;21.30;99.90;;;;;;5036358;28;20064;-62
2023/08/24 10:57:27;;;;;;;13.27;9.40;;;21.40;99.90;;;;;;5044787;28;20399;-65
2023/08/24 11:00:25;;;;;;;15.35;8.57;;;21.40;99.90;;;;;;5051945;28;20157;-65
2023/08/24 11:02:51;;;;;;;14.05;9.32;;;21.30;99.90;;;;;;5044461;28;20091;-70
2023/08/24 11:05:28;;;;;;;18.30;9.93;;;21.20;99.90;;;;;;5048796;28;20080;-70
2023/08/24 11:07:59;;;;;;;16.48;10.48;;;;;;;;;;5053030;28;20509;-71
2023/08/24 11:10:26;;;;;;;17.17;10.07;;;;;;;;;;5051825;28;20116;-71
2023/08/24 11:13:04;;;;;;;15.10;10.73;;;21.30;99.90;;;;;;5049025;28;20045;-74
2023/08/24 11:15:37;;;;;;;14.38;9.65;;;21.50;99.90;;;;;;5045505;28;20503;-73
2023/08/24 11:18:12;;;;;;;16.63;11.10;;;21.80;99.90;;;;;;5051528;28;20068;-68
2023/08/24 11:20:38;;;;;;;19.33;11.63;;;;;;;;;;5047055;28;20052;-71
2023/08/24 11:23:03;;;;;;;17.13;11.57;;;21.70;99.90;;;;;;5047696;28;20408;-71
2023/08/24 11:25:35;;;;;;;20.48;11.73;;;21.70;99.90;;;;;;5049554;28;20049;-71
2023/08/24 11:28:01;;;;;;;19.80;12.02;;;;;;;;;;5040173;28;20112;-70
2023/08/24 11:30:27;;;;;;;17.95;11.30;;;;;;;;;;5065096;28;20049;-70
2023/08/24 11:32:53;;;;;;;18.48;12.38;;;;;;;;;;5051183;28;20113;-70
2023/08/24 11:35:20;;;;;;;15.18;11.43;;;21.90;99.90;;;;;;5052717;28;20052;-70
2023/08/24 11:37:54;;;;;;;18.33;11.32;;;21.90;99.90;;;;;;5052811;28;20167;-70
2023/08/24 11:40:20;;;;;;;18.27;11.60;;;;;;;;;;5051019;28;20056;-70
2023/08/24 11:42:46;;;;;;;17.48;10.85;;;22.00;99.90;;;;;;5064859;28;20167;-70
2023/08/24 11:45:14;;;;;;;18.67;11.85;;;22.10;99.90;;;;;;5051715;28;20138;-71
2023/08/24 11:47:40;;;;;;;15.07;10.95;;;;;;;;;;5049699;28;20424;-71
2023/08/24 11:50:07;;;;;;;16.13;10.18;;;22.30;99.90;;;;;;5051055;28;20047;-70
2023/08/24 11:52:39;;;;;;;19.15;11.27;;;22.60;99.90;;;;;;5050729;28;20167;-68
2023/08/24 11:55:06;;;;;;;13.23;9.95;;;22.60;99.90;;;;;;5050841;28;20049;-70
2023/08/24 11:57:37;;;;;;;16.98;10.25;;;23.00;99.90;;;;;;5051281;28;20059;-70
2023/08/24 12:00:04;;;;;;;16.13;10.80;;;22.60;99.90;;;;;;5049355;28;20516;-68
2023/08/24 12:02:31;;;;;;;15.88;9.60;;;22.50;99.90;;;;;;5050046;28;20041;-70
2023/08/24 12:04:58;;;;;;;14.85;9.95;;;22.80;99.90;;;;;;5048747;28;20052;-70
2023/08/24 12:07:25;;;;;;;14.95;10.25;;;22.90;99.90;;;;;;5049104;28;20072;-70
2023/08/24 12:09:56;;;;;;;17.40;10.40;;;;;;;;;;5047386;28;20554;-69
2023/08/24 12:12:23;;;;;;;12.68;9.38;;;;;;;;;;5037079;28;20431;-69
2023/08/24 12:14:49;;;;;;;14.68;10.45;;;;;;;;;;5052044;28;20519;-69
2023/08/24 12:17:16;;;;;;;13.77;11.10;;;23.00;99.90;;;;;;5052146;28;20079;-68
2023/08/24 12:20:06;;;;;;;13.98;10.68;;;23.10;99.90;;;;;;5037480;28;20081;-67
2023/08/24 12:22:32;;;;;;;16.27;11.45;;;;;;;;;;5039678;28;20052;-68
2023/08/24 12:24:58;;;;;;;13.10;11.68;;;;;;;;;;5046931;28;20496;-66
2023/08/24 12:27:27;;;;;;;16.52;11.68;;;23.10;99.90;;;;;;5044988;28;20477;-66
2023/08/24 12:29:53;;;;;;;17.20;11.23;;;;;;;;;;5067096;28;20045;-66
2023/08/24 12:32:23;;;;;;;14.50;11.85;;;23.20;99.90;;;;;;5049953;28;20056;-66
2023/08/24 12:34:51;;;;;;;21.10;12.95;;;23.00;99.90;;;;;;5048413;28;20048;-65
2023/08/24 12:37:17;;;;;;;15.18;12.43;;;;;;;;;;5050825;28;20047;-66
2023/08/24 12:39:43;;;;;;;15.52;13.45;;;;;;;;;;5050931;28;20053;-66
2023/08/24 12:42:11;;;;;;;19.88;14.48;;;;;;;;;;5044585;28;20107;-65
2023/08/24 12:44:36;;;;;;;20.05;15.27;;;22.90;99.90;;;;;;5050502;28;20049;-65
2023/08/24 12:47:03;;;;;;;19.75;13.75;;;;;;;;;;5040073;28;20480;-64
2023/08/24 12:49:29;;;;;;;18.63;13.55;;;;;;;;;;5040699;28;20041;-67
2023/08/24 12:51:55;;;;;;;19.02;13.23;;;;;;;;;;5049377;28;20045;-65
2023/08/24 12:54:21;;;;;;;15.77;12.93;;;22.60;99.90;;;;;;5031254;28;20045;-64
2023/08/24 12:56:48;;;;;;;16.83;12.02;;;;;;;;;;5078851;28;20128;-64
2023/08/24 12:59:14;;;;;;;18.08;13.20;;;;;;;;;;5040632;28;20049;-64
2023/08/24 13:01:40;;;;;;;19.45;12.98;;;;;;;;;;5040735;28;20045;-63
2023/08/24 13:04:08;;;;;;;16.13;11.82;;;;;;;;;;5050095;28;20509;-63
2023/08/24 13:06:34;;;;;;;14.68;11.70;;;;;;;;;;5034327;28;20054;-64
2023/08/24 13:09:03;;;;;;;19.10;13.23;;;23.20;99.90;;;;;;5037805;28;20088;-64
2023/08/24 13:11:29;;;;;;;14.52;11.20;;;;;;;;;;5052656;28;20115;-64
2023/08/24 13:13:55;;;;;;;13.48;10.80;;;;;;;;;;5068745;28;20132;-64
2023/08/24 13:16:21;;;;;;;13.30;9.68;;;23.50;99.90;;;;;;5047120;28;20120;-64
2023/08/24 13:18:47;;;;;;;14.95;10.85;;;;;;;;;;5050554;28;20041;-64
2023/08/24 13:21:13;;;;;;;15.93;9.30;;;23.70;99.90;;;;;;5047107;28;20060;-65
2023/08/24 13:23:39;;;;;;;13.85;9.48;;;;;;;;;;5047846;28;20045;-65
2023/08/24 13:26:05;;;;;;;11.85;10.25;;;;;;;;;;5034758;28;20080;-64
2023/08/24 13:28:34;;;;;;;16.75;11.27;;;23.80;99.90;;;;;;5049380;28;20045;-64
2023/08/24 13:30:59;;;;;;;12.40;9.57;;;23.70;99.90;;;;;;5050670;28;20064;-65
2023/08/24 13:33:25;;;;;;;14.90;10.10;;;;;;;;;;5047403;28;21008;-65
2023/08/24 13:35:51;;;;;;;11.18;9.88;;;24.20;99.90;;;;;;5040278;28;20072;-65
2023/08/24 13:38:17;;;;;;;12.75;10.13;;;24.10;99.90;;;;;;5040000;28;20080;-65
2023/08/24 13:40:43;;;;;;;12.27;8.52;;;;;;;;;;5033199;28;20057;-65
2023/08/24 13:43:09;;;;;;;11.35;8.18;;;;;;;;;;5044912;28;20454;-65
2023/08/24 13:45:34;;;;;;;9.70;7.20;;;24.20;99.90;;;;;;5053189;28;20120;-65
2023/08/24 13:48:00;;;;;;;9.50;7.00;;;23.80;99.90;;;;;;5051323;28;20049;-65
2023/08/24 13:50:26;;;;;;;7.93;6.30;;;23.40;99.90;;;;;;5036493;28;20045;-65
2023/08/24 13:52:51;;;;;;;8.23;6.25;;;23.40;99.90;;;;;;5043787;28;20490;-66
2023/08/24 13:55:17;;;;;;;10.45;6.55;;;;;;;;;;5052542;28;20568;-65
2023/08/24 13:57:45;;;;;;;10.30;8.02;;;23.60;99.90;;;;;;5052853;28;20059;-66
2023/08/24 14:00:12;;;;;;;9.23;6.78;;;;;;;;;;5058803;28;20499;-68